createdAt,value
2023-02-09T00:01:38.250Z,3.88
2023-02-09T00:04:13.811Z,3.96
2023-02-09T00:06:41.552Z,4.07
2023-02-09T00:09:20.409Z,2.87
2023-02-09T00:12:08.680Z,2.56
2023-02-09T00:14:40.654Z,3.32
2023-02-09T00:17:11.049Z,3.55
2023-02-09T00:19:38.810Z,3.24
2023-02-09T00:22:06.673Z,3.47
2023-02-09T00:24:38.216Z,3.48
2023-02-09T00:27:05.996Z,3.44
2023-02-09T00:29:33.979Z,3.38
2023-02-09T00:32:03.580Z,3.35
2023-02-09T00:34:31.375Z,2.58
2023-02-09T00:36:59.129Z,3.00
2023-02-09T00:39:28.883Z,3.07
2023-02-09T00:42:08.609Z,2.81
2023-02-09T00:44:46.082Z,2.36
2023-02-09T00:47:17.253Z,2.04
2023-02-09T00:49:49.850Z,1.72
2023-02-09T00:52:17.631Z,1.91
2023-02-09T00:54:48.443Z,1.55
2023-02-09T00:57:19.196Z,1.33
2023-02-09T00:59:47.029Z,1.60
2023-02-09T01:02:19.563Z,1.67
2023-02-09T01:04:49.939Z,2.09
2023-02-09T01:07:17.836Z,2.20
2023-02-09T01:09:52.771Z,1.47
2023-02-09T01:12:20.649Z,1.56
2023-02-09T01:14:53.433Z,1.12
2023-02-09T01:17:24.703Z,1.74
2023-02-09T01:19:53.613Z,2.36
2023-02-09T01:22:21.837Z,2.32
2023-02-09T01:24:59.715Z,2.79
2023-02-09T01:27:30.118Z,1.75
2023-02-09T01:30:01.307Z,2.57
2023-02-09T01:32:30.914Z,2.43
2023-02-09T01:35:00.980Z,2.38
2023-02-09T01:37:28.983Z,2.49
2023-02-09T01:39:58.190Z,2.27
2023-02-09T01:42:27.552Z,1.78
2023-02-09T01:45:07.440Z,2.43
2023-02-09T01:47:43.499Z,2.22
2023-02-09T01:50:14.535Z,2.35
2023-02-09T01:52:43.745Z,1.57
2023-02-09T01:55:18.975Z,1.15
2023-02-09T01:57:50.925Z,1.71
2023-02-09T02:00:20.960Z,2.00
2023-02-09T02:02:56.640Z,1.92
2023-02-09T02:05:28.005Z,2.38
2023-02-09T02:07:59.671Z,1.87
2023-02-09T02:10:30.820Z,2.57
2023-02-09T02:13:11.106Z,2.83
2023-02-09T02:15:44.402Z,2.31
2023-02-09T02:18:23.184Z,2.06
2023-02-09T02:21:17.285Z,2.37
2023-02-09T02:23:49.408Z,2.18
2023-02-09T02:26:33.776Z,2.05
2023-02-09T02:29:25.563Z,2.29
2023-02-09T02:32:16.794Z,2.90
2023-02-09T02:34:47.502Z,2.60
2023-02-09T02:37:25.818Z,2.69
2023-02-09T02:40:02.767Z,1.66
2023-02-09T02:42:51.985Z,2.12
2023-02-09T02:45:31.205Z,1.73
2023-02-09T02:48:12.156Z,2.14
2023-02-09T02:50:47.065Z,2.14
2023-02-09T02:53:19.739Z,1.92
2023-02-09T02:55:48.420Z,2.50
2023-02-09T02:58:17.528Z,2.65
2023-02-09T03:00:48.468Z,2.62
2023-02-09T03:03:23.030Z,2.67
2023-02-09T03:05:51.470Z,2.16
2023-02-09T03:08:25.432Z,2.27
2023-02-09T03:10:55.393Z,1.95
2023-02-09T03:13:35.174Z,2.46
2023-02-09T03:21:46.664Z,2.05
2023-02-09T03:24:23.994Z,2.25
2023-02-09T03:27:03.025Z,1.90
2023-02-09T03:29:33.193Z,1.93
2023-02-09T03:32:05.886Z,2.31
2023-02-09T03:34:36.172Z,1.94
2023-02-09T03:37:04.011Z,1.60
2023-02-09T03:39:37.275Z,1.74
2023-02-09T03:42:05.479Z,1.59
2023-02-09T03:44:40.289Z,1.43
2023-02-09T03:47:10.406Z,1.12
2023-02-09T03:49:42.287Z,1.37
2023-02-09T03:52:12.288Z,0.84
2023-02-09T03:54:44.990Z,1.08
2023-02-09T03:57:13.214Z,-0.05
2023-02-09T03:59:41.357Z,0.78
2023-02-09T04:02:12.979Z,0.98
2023-02-09T04:04:52.518Z,0.80
2023-02-09T04:07:22.594Z,0.86
2023-02-09T04:09:52.570Z,0.89
2023-02-09T04:12:20.420Z,0.66
2023-02-09T04:14:48.178Z,0.33
2023-02-09T04:17:22.041Z,0.82
2023-02-09T04:19:51.287Z,1.23
2023-02-09T04:22:22.808Z,1.26
2023-02-09T04:24:53.846Z,1.09
2023-02-09T04:27:31.964Z,1.43
2023-02-09T04:30:03.242Z,1.62
2023-02-09T04:32:35.592Z,1.57
2023-02-09T04:35:07.549Z,1.00
2023-02-09T04:37:35.308Z,1.23
2023-02-09T04:40:03.197Z,1.74
2023-02-09T04:42:32.309Z,1.93
2023-02-09T04:45:06.293Z,1.73
2023-02-09T04:47:35.518Z,1.76
2023-02-09T04:50:05.093Z,1.55
2023-02-09T04:52:35.707Z,2.05
2023-02-09T04:55:03.628Z,1.18
2023-02-09T04:57:59.841Z,1.73
2023-02-09T05:00:29.382Z,1.74
2023-02-09T05:02:57.272Z,2.18
2023-02-09T05:05:26.744Z,1.77
2023-02-09T05:07:54.541Z,2.13
2023-02-09T05:10:22.404Z,-0.18
2023-02-09T05:12:53.511Z,1.47
2023-02-09T05:15:21.576Z,2.18
2023-02-09T05:17:51.344Z,2.28
2023-02-09T05:20:21.325Z,1.51
2023-02-09T05:22:54.544Z,2.21
2023-02-09T05:25:27.787Z,1.92
2023-02-09T05:27:55.722Z,2.03
2023-02-09T05:30:23.721Z,1.79
2023-02-09T05:32:57.434Z,1.75
2023-02-09T05:35:25.601Z,1.63
2023-02-09T05:37:55.104Z,1.32
2023-02-09T05:40:26.502Z,1.85
2023-02-09T05:42:55.028Z,1.28
2023-02-09T05:45:23.597Z,1.37
2023-02-09T05:47:51.395Z,1.47
2023-02-09T05:50:26.810Z,0.89
2023-02-09T05:52:59.263Z,1.15
2023-02-09T05:55:27.298Z,0.77
2023-02-09T05:57:57.591Z,0.85
2023-02-09T06:00:29.954Z,1.17
2023-02-09T06:02:58.743Z,0.60
2023-02-09T06:05:27.172Z,0.29
2023-02-09T06:08:01.362Z,0.43
2023-02-09T06:10:31.858Z,-0.10
2023-02-09T06:12:59.673Z,0.42
2023-02-09T06:15:31.026Z,0.42
2023-02-09T06:17:58.972Z,0.74
2023-02-09T06:20:29.552Z,0.35
2023-02-09T06:23:01.946Z,1.18
2023-02-09T06:25:32.771Z,0.39
2023-02-09T06:28:00.913Z,0.47
2023-02-09T06:30:32.881Z,0.56
2023-02-09T06:33:00.968Z,0.81
2023-02-09T06:35:28.843Z,0.96
2023-02-09T06:37:59.280Z,0.65
2023-02-09T06:40:27.386Z,0.11
2023-02-09T06:42:55.519Z,0.45
2023-02-09T06:45:26.827Z,-0.02
2023-02-09T06:47:54.696Z,0.20
2023-02-09T06:50:22.771Z,0.51
2023-02-09T06:52:53.310Z,0.14
2023-02-09T06:55:26.445Z,0.74
2023-02-09T06:57:55.708Z,-0.31
2023-02-09T07:00:24.579Z,0.24
2023-02-09T07:02:53.244Z,0.66
2023-02-09T07:05:23.112Z,0.73
2023-02-09T07:07:56.938Z,1.00
2023-02-09T07:10:27.004Z,0.20
2023-02-09T07:12:55.197Z,1.40
2023-02-09T07:15:26.924Z,1.52
2023-02-09T07:17:54.908Z,1.84
2023-02-09T07:20:22.851Z,1.72
2023-02-09T07:22:50.901Z,1.82
2023-02-09T07:25:20.646Z,1.80
2023-02-09T07:27:50.115Z,1.69
2023-02-09T07:30:19.352Z,1.79
2023-02-09T07:32:48.220Z,2.07
2023-02-09T07:35:19.269Z,1.17
2023-02-09T07:37:51.563Z,1.83
2023-02-09T07:40:19.955Z,1.49
2023-02-09T07:42:49.250Z,1.64
2023-02-09T07:45:17.456Z,1.23
2023-02-09T07:47:46.668Z,1.05
2023-02-09T07:50:19.093Z,1.59
2023-02-09T07:52:48.020Z,1.26
2023-02-09T07:55:15.950Z,1.10
2023-02-09T07:57:44.763Z,1.70
2023-02-09T08:00:18.524Z,1.81
2023-02-09T08:02:47.112Z,1.54
2023-02-09T08:05:19.461Z,1.67
2023-02-09T08:07:49.655Z,1.68
2023-02-09T08:10:22.331Z,2.73
2023-02-09T08:13:02.554Z,2.29
2023-02-09T08:15:38.053Z,2.31
2023-02-09T08:18:13.024Z,1.78
2023-02-09T08:20:41.312Z,2.07
2023-02-09T08:23:11.730Z,1.45
2023-02-09T08:25:41.868Z,1.90
2023-02-09T08:28:09.978Z,2.29
2023-02-09T08:30:43.023Z,2.58
2023-02-09T08:33:10.964Z,2.67
2023-02-09T08:35:39.344Z,2.84
2023-02-09T08:38:12.059Z,2.65
2023-02-09T08:40:44.023Z,2.32
2023-02-09T08:43:12.356Z,0.45
2023-02-09T08:45:43.360Z,2.77
2023-02-09T08:48:11.643Z,3.23
2023-02-09T08:50:46.521Z,2.42
2023-02-09T08:53:17.422Z,2.68
2023-02-09T08:55:45.877Z,3.32
2023-02-09T08:58:14.275Z,3.46
2023-02-09T09:00:43.946Z,3.80
2023-02-09T09:03:11.756Z,4.10
2023-02-09T09:05:42.540Z,4.15
2023-02-09T09:08:12.979Z,4.70
2023-02-09T09:10:46.551Z,3.46
2023-02-09T09:13:15.674Z,2.83
2023-02-09T09:15:50.784Z,4.70
2023-02-09T09:18:18.860Z,4.79
2023-02-09T09:20:50.725Z,5.05
2023-02-09T09:23:18.748Z,4.80
2023-02-09T09:25:46.845Z,4.70
2023-02-09T09:28:16.140Z,5.24
2023-02-09T09:30:45.603Z,5.42
2023-02-09T09:33:13.583Z,5.82
2023-02-09T09:35:44.205Z,5.63
2023-02-09T09:38:14.747Z,5.55
2023-02-09T09:40:46.408Z,5.70
2023-02-09T09:43:22.242Z,5.89
2023-02-09T09:45:51.661Z,5.51
2023-02-09T09:48:25.231Z,5.49
2023-02-09T09:50:56.787Z,5.92
2023-02-09T09:53:31.878Z,5.65
2023-02-09T09:56:02.712Z,5.98
2023-02-09T09:58:36.307Z,5.79
2023-02-09T10:01:13.297Z,5.84
2023-02-09T10:03:50.860Z,6.19
2023-02-09T10:06:21.022Z,6.02
2023-02-09T10:08:53.500Z,4.94
2023-02-09T10:11:26.951Z,6.20
2023-02-09T10:13:59.051Z,6.69
2023-02-09T10:16:34.834Z,7.06
2023-02-09T10:19:03.852Z,7.16
2023-02-09T10:21:37.437Z,7.25
2023-02-09T10:24:13.029Z,7.21
2023-02-09T10:26:43.043Z,6.73
2023-02-09T10:29:24.674Z,7.20
2023-02-09T10:31:58.969Z,7.30
2023-02-09T10:34:31.708Z,7.02
2023-02-09T10:37:18.495Z,7.38
2023-02-09T10:39:49.076Z,7.42
2023-02-09T10:42:26.134Z,7.20
2023-02-09T10:44:58.142Z,6.78
2023-02-09T10:47:33.085Z,6.52
2023-02-09T10:50:18.145Z,6.68
2023-02-09T10:52:58.676Z,6.11
2023-02-09T10:55:31.637Z,6.84
2023-02-09T10:58:17.830Z,6.81
2023-02-09T11:00:57.157Z,7.04
2023-02-09T11:03:26.520Z,6.80
2023-02-09T11:06:03.576Z,6.86
2023-02-09T11:08:45.944Z,6.96
2023-02-09T11:11:24.547Z,7.66
2023-02-09T11:13:54.054Z,8.09
2023-02-09T11:16:59.849Z,8.23
2023-02-09T11:19:50.082Z,7.94
2023-02-09T11:22:21.586Z,7.17
2023-02-09T11:25:02.767Z,7.82
2023-02-09T11:27:44.910Z,8.16
2023-02-09T11:30:21.816Z,8.23
2023-02-09T11:32:53.402Z,7.78
2023-02-09T11:35:25.953Z,7.53
2023-02-09T11:37:57.419Z,8.07
2023-02-09T11:40:29.501Z,7.69
2023-02-09T11:43:04.091Z,8.67
2023-02-09T11:45:41.761Z,7.97
2023-02-09T11:48:12.830Z,8.26
2023-02-09T11:50:53.975Z,7.88
2023-02-09T11:53:30.952Z,8.87
2023-02-09T11:56:00.541Z,9.29
2023-02-09T11:58:47.549Z,9.38
2023-02-09T12:01:28.083Z,9.17
2023-02-09T12:04:11.298Z,9.52
2023-02-09T12:06:46.610Z,9.47
2023-02-09T12:09:24.987Z,10.08
2023-02-09T12:12:04.215Z,9.53
2023-02-09T12:14:45.020Z,10.01
2023-02-09T12:17:15.307Z,10.89
2023-02-09T12:19:50.558Z,11.28
2023-02-09T12:22:45.290Z,11.41
2023-02-09T12:25:35.787Z,11.25
2023-02-09T12:28:42.292Z,10.17
2023-02-09T12:31:14.019Z,10.49
2023-02-09T12:34:12.502Z,11.14
2023-02-09T12:37:01.986Z,11.06
2023-02-09T12:39:34.880Z,11.39
2023-02-09T12:42:29.356Z,11.09
2023-02-09T12:44:59.249Z,10.73
2023-02-09T12:47:48.149Z,11.54
2023-02-09T12:50:49.525Z,11.00
2023-02-09T12:53:45.378Z,11.55
2023-02-09T12:56:30.252Z,11.06
2023-02-09T12:59:14.540Z,11.38
2023-02-09T13:02:18.816Z,12.36
2023-02-09T13:04:55.588Z,11.76
2023-02-09T13:07:31.053Z,11.23
2023-02-09T13:10:00.267Z,10.08
2023-02-09T13:12:38.293Z,10.48
2023-02-09T13:15:13.958Z,8.78
2023-02-09T13:17:48.612Z,9.80
2023-02-09T13:20:48.885Z,9.36
2023-02-09T13:23:30.723Z,8.33
2023-02-09T13:26:20.029Z,8.88
2023-02-09T13:28:49.423Z,9.66
2023-02-09T13:31:23.930Z,9.55
2023-02-09T13:34:04.325Z,9.87
2023-02-09T13:36:43.223Z,9.65
2023-02-09T13:39:23.496Z,9.49
2023-02-09T13:41:55.416Z,9.11
2023-02-09T13:44:35.184Z,9.40
2023-02-09T13:47:08.339Z,9.21
2023-02-09T13:49:41.107Z,9.83
2023-02-09T13:52:12.242Z,9.97
2023-02-09T13:54:40.824Z,9.94
2023-02-09T13:57:16.698Z,10.14
2023-02-09T13:59:45.988Z,11.06
2023-02-09T14:02:22.627Z,10.12
2023-02-09T14:04:56.334Z,10.46
2023-02-09T14:07:34.796Z,10.18
2023-02-09T14:10:08.437Z,10.00
2023-02-09T14:12:55.828Z,9.95
2023-02-09T14:15:48.849Z,10.17
2023-02-09T14:18:39.068Z,9.90
2023-02-09T14:21:20.164Z,9.94
2023-02-09T14:24:15.142Z,10.20
2023-02-09T14:26:50.502Z,10.85
2023-02-09T14:29:20.657Z,10.93
2023-02-09T14:31:54.869Z,10.81
2023-02-09T14:34:33.129Z,11.56
2023-02-09T14:37:17.484Z,11.54
2023-02-09T14:39:56.825Z,11.53
2023-02-09T14:42:24.895Z,12.38
2023-02-09T14:44:57.861Z,12.33
2023-02-09T14:47:41.246Z,11.45
2023-02-09T14:50:12.794Z,11.15
2023-02-09T14:52:50.662Z,10.98
2023-02-09T14:55:21.016Z,10.66
2023-02-09T14:57:50.493Z,9.77
2023-02-09T15:00:24.546Z,9.42
2023-02-09T15:02:54.740Z,8.51
2023-02-09T15:05:28.463Z,9.36
2023-02-09T15:07:59.028Z,9.50
2023-02-09T15:10:30.565Z,9.51
2023-02-09T15:13:04.087Z,9.64
2023-02-09T15:15:33.218Z,9.82
2023-02-09T15:18:02.581Z,8.77
2023-02-09T15:20:31.456Z,9.23
2023-02-09T15:23:02.376Z,8.76
2023-02-09T15:25:30.607Z,8.98
2023-02-09T15:27:59.649Z,8.65
2023-02-09T15:30:30.822Z,8.82
2023-02-09T15:33:08.528Z,8.70
2023-02-09T15:35:37.646Z,8.47
2023-02-09T15:38:05.669Z,8.35
2023-02-09T15:40:52.838Z,8.36
2023-02-09T15:43:39.686Z,8.50
2023-02-09T15:46:26.449Z,9.02
2023-02-09T15:48:57.790Z,9.08
2023-02-09T15:51:29.973Z,8.93
2023-02-09T15:54:00.154Z,8.93
2023-02-09T15:56:30.337Z,9.06
2023-02-09T15:59:03.995Z,9.47
2023-02-09T16:01:42.106Z,9.06
2023-02-09T16:04:15.074Z,9.31
2023-02-09T16:06:49.651Z,8.95
2023-02-09T16:09:19.626Z,8.44
2023-02-09T16:11:50.542Z,8.44
2023-02-09T16:14:21.764Z,8.30
2023-02-09T16:16:50.240Z,8.08
2023-02-09T16:19:19.733Z,8.26
2023-02-09T16:21:51.887Z,8.32
2023-02-09T16:24:24.749Z,8.43
2023-02-09T16:26:55.641Z,8.42
2023-02-09T16:29:26.025Z,8.32
2023-02-09T16:31:54.860Z,8.08
2023-02-09T16:34:24.067Z,8.35
2023-02-09T16:36:53.176Z,8.18
2023-02-09T16:39:22.569Z,7.92
2023-02-09T16:41:53.724Z,7.88
2023-02-09T16:44:23.307Z,7.74
2023-02-09T16:46:53.504Z,7.44
2023-02-09T16:49:38.030Z,7.82
2023-02-09T16:52:11.400Z,7.78
2023-02-09T16:54:48.112Z,7.52
2023-02-09T16:57:26.659Z,7.48
2023-02-09T16:59:55.094Z,7.71
2023-02-09T17:02:38.536Z,7.59
2023-02-09T17:05:19.153Z,7.75
2023-02-09T17:07:54.489Z,7.29
2023-02-09T17:10:25.893Z,7.49
2023-02-09T17:12:56.852Z,7.27
2023-02-09T17:15:31.444Z,7.23
2023-02-09T17:18:04.954Z,7.30
2023-02-09T17:20:38.527Z,6.90
2023-02-09T17:23:08.290Z,6.69
2023-02-09T17:25:36.606Z,6.87
2023-02-09T17:28:04.636Z,6.63
2023-02-09T17:30:33.797Z,6.75
2023-02-09T17:33:05.687Z,6.88
2023-02-09T17:36:07.198Z,6.24
2023-02-09T17:38:29.102Z,6.62
2023-02-09T17:41:02.497Z,5.75
2023-02-09T17:43:31.472Z,6.26
2023-02-09T17:45:59.954Z,6.45
2023-02-09T17:48:28.090Z,4.57
2023-02-09T17:51:00.269Z,6.06
2023-02-09T17:53:30.397Z,6.31
2023-02-09T17:56:04.148Z,6.74
2023-02-09T17:58:32.189Z,6.50
2023-02-09T18:01:02.962Z,6.45
2023-02-09T18:03:31.202Z,6.51
2023-02-09T18:06:03.091Z,6.57
2023-02-09T18:08:31.208Z,6.28
2023-02-09T18:11:00.166Z,6.48
2023-02-09T18:13:28.575Z,6.79
2023-02-09T18:16:01.991Z,6.15
2023-02-09T18:18:36.608Z,6.25
2023-02-09T18:21:07.943Z,5.98
2023-02-09T18:23:36.070Z,5.98
2023-02-09T18:26:09.049Z,6.51
2023-02-09T18:28:36.992Z,6.69
2023-02-09T18:31:06.437Z,6.74
2023-02-09T18:33:34.917Z,6.44
2023-02-09T18:36:03.417Z,6.58
2023-02-09T18:38:41.412Z,6.22
2023-02-09T18:41:12.006Z,6.30
2023-02-09T18:43:40.319Z,6.48
2023-02-09T18:46:12.095Z,6.00
2023-02-09T18:48:41.194Z,6.08
2023-02-09T18:51:09.108Z,6.20
2023-02-09T18:53:40.141Z,5.80
2023-02-09T18:56:08.126Z,5.74
2023-02-09T18:58:36.716Z,6.09
2023-02-09T19:01:04.850Z,5.47
2023-02-09T19:03:37.976Z,5.33
2023-02-09T19:06:08.980Z,5.85
2023-02-09T19:08:38.417Z,5.43
2023-02-09T19:11:09.255Z,6.25
2023-02-09T19:13:45.996Z,4.24
2023-02-09T19:16:18.046Z,-2.36
2023-02-09T19:18:50.150Z,5.39
2023-02-09T19:21:22.000Z,5.30
2023-02-09T19:23:53.997Z,5.00
2023-02-09T19:26:25.159Z,5.27
2023-02-09T19:28:58.045Z,5.11
2023-02-09T19:31:27.762Z,5.34
2023-02-09T19:33:58.452Z,5.65
2023-02-09T19:36:31.642Z,5.58
2023-02-09T19:39:04.675Z,5.12
2023-02-09T19:41:32.789Z,5.05
2023-02-09T19:44:07.315Z,4.73
2023-02-09T19:46:35.338Z,4.94
2023-02-09T19:49:06.858Z,4.17
2023-02-09T19:51:36.983Z,4.96
2023-02-09T19:54:06.760Z,4.85
2023-02-09T19:56:37.303Z,4.71
2023-02-09T19:59:07.699Z,4.72
2023-02-09T20:01:40.510Z,4.98
2023-02-09T20:04:08.405Z,4.75
2023-02-09T20:06:38.456Z,4.74
2023-02-09T20:09:07.628Z,4.69
2023-02-09T20:11:40.495Z,2.55
2023-02-09T20:14:08.398Z,4.41
2023-02-09T20:16:39.361Z,4.60
2023-02-09T20:19:10.612Z,4.33
2023-02-09T20:21:38.643Z,4.35
2023-02-09T20:24:11.628Z,4.16
2023-02-09T20:26:42.036Z,4.10
2023-02-09T20:29:11.224Z,3.93
2023-02-09T20:31:43.195Z,4.28
2023-02-09T20:34:15.967Z,4.78
2023-02-09T20:36:48.149Z,3.93
2023-02-09T20:39:23.539Z,4.49
2023-02-09T20:42:13.675Z,4.30
2023-02-09T20:44:58.864Z,4.57
2023-02-09T20:47:27.179Z,4.63
2023-02-09T20:49:57.862Z,4.49
2023-02-09T20:52:28.589Z,4.60
2023-02-09T20:54:58.606Z,3.86
2023-02-09T20:57:30.666Z,3.73
2023-02-09T21:00:03.006Z,3.93
2023-02-09T21:02:32.428Z,4.52
2023-02-09T21:05:00.335Z,3.79
2023-02-09T21:07:28.090Z,4.22
2023-02-09T21:09:57.293Z,4.31
2023-02-09T21:12:25.724Z,4.24
2023-02-09T21:14:56.587Z,4.13
2023-02-09T21:17:31.419Z,3.91
2023-02-09T21:19:59.236Z,3.73
2023-02-09T21:22:29.991Z,4.10
2023-02-09T21:25:00.653Z,3.85
2023-02-09T21:27:30.413Z,3.74
2023-02-09T21:30:01.415Z,1.92
2023-02-09T21:32:33.982Z,3.92
2023-02-09T21:35:03.891Z,3.91
2023-02-09T21:37:32.593Z,4.07
2023-02-09T21:40:07.673Z,3.80
2023-02-09T21:42:39.497Z,3.59
2023-02-09T21:45:10.959Z,3.01
2023-02-09T21:47:40.687Z,3.71
2023-02-09T21:50:11.922Z,3.82
2023-02-09T21:52:39.757Z,3.93
2023-02-09T21:55:09.492Z,3.78
2023-02-09T21:57:40.109Z,3.60
2023-02-09T22:00:09.803Z,3.41
2023-02-09T22:02:41.821Z,3.12
2023-02-09T22:05:09.800Z,3.87
2023-02-09T22:07:43.343Z,3.57
2023-02-09T22:10:15.833Z,3.48
2023-02-09T22:12:44.858Z,3.50
2023-02-09T22:15:18.022Z,3.24
2023-02-09T22:17:47.903Z,3.86
2023-02-09T22:20:18.600Z,3.64
2023-02-09T22:22:49.602Z,3.34
2023-02-09T22:25:22.756Z,3.37
2023-02-09T22:27:52.506Z,3.31
2023-02-09T22:30:23.486Z,3.48
2023-02-09T22:32:54.272Z,3.17
2023-02-09T22:35:23.339Z,3.70
2023-02-09T22:37:54.787Z,3.76
2023-02-09T22:40:23.997Z,3.73
2023-02-09T22:43:00.165Z,4.21
2023-02-09T22:45:31.212Z,3.39
2023-02-09T22:47:59.188Z,3.34
2023-02-09T22:50:29.105Z,3.78
2023-02-09T22:52:56.987Z,3.91
2023-02-09T22:55:27.366Z,3.75
2023-02-09T22:58:00.568Z,3.74
2023-02-09T23:00:28.438Z,3.72
2023-02-09T23:03:08.461Z,3.70
2023-02-09T23:05:38.877Z,3.59
2023-02-09T23:08:06.636Z,3.29
2023-02-09T23:10:35.812Z,3.57
2023-02-09T23:13:09.756Z,3.61
2023-02-09T23:15:51.661Z,3.44
2023-02-09T23:18:19.546Z,3.64
2023-02-09T23:20:52.066Z,3.59
2023-02-09T23:23:19.839Z,3.31
2023-02-09T23:25:54.427Z,3.48
2023-02-09T23:28:22.327Z,3.43
2023-02-09T23:30:51.880Z,3.36
2023-02-09T23:33:19.821Z,3.31
2023-02-09T23:35:56.200Z,3.24
2023-02-09T23:38:24.036Z,3.30
2023-02-09T23:40:59.364Z,3.41
2023-02-09T23:43:30.310Z,2.73
2023-02-09T23:46:04.048Z,2.14
2023-02-09T23:48:32.435Z,3.21
2023-02-09T23:51:02.166Z,2.95
2023-02-09T23:53:31.109Z,2.75
2023-02-09T23:56:03.840Z,2.64
2023-02-09T23:58:36.740Z,2.90
